Share

Osceola, MO (64776)

Gordon's Orchard (KMOCOLLI2) Elev 925 ft | 37.98 °N, 93.65 °W | Change Station

Current weather conditions updated 6 minutes ago

Partly Cloudy
Partly Cloudy
79.0 °F
Feels Like 80 °F
N
5.3
Wind Variable Wind from South
Sunrise 6:33 AM
Sunset 7:56 PM
Moon Waning Gibbous

Today is forecast to be nearly the same temperature as yesterday. Showers and possibly some thunder overnight tonight.

Pressure 30.12 in
Visibility 10.0 miles
Clouds Few 5500 ft
Heat Index 80 °F
Dew Point 57 °F
Humidity 47%
Rainfall 0.00 in
Snow Depth Not available.
UV 9 out of 16
Pollen 10.80 out of 12
Air Quality Not available.
Flu Activity Sporadic
METAR KGLY 201735Z AUTO 21012G16KT 10SM FEW055 25/12 A3012 RMK AO2

More Conditions Fewer Conditions

Pressure 30.12 in
Visibility 10.0 miles
Clouds Few 5500 ft
Heat Index 80 °F
Dew Point 57 °F
Humidity 47%
Rainfall 0.00 in
Snow Depth Not available.
UV 9 out of 16
Pollen 10.80 out of 12
Air Quality Not available.
Flu Activity Sporadic
METAR KGLY 201735Z AUTO 21012G16KT 10SM FEW055 25/12 A3012 RMK AO2

More Conditions Fewer Conditions

10-Day Weather Forecast

Almanac

Astronomy

Apr. 20, 2014 Rise Set
Actual Time 6:33 AM CDT 7:56 PM CDT
Civil Twilight 6:05 AM CDT 8:23 PM CDT
Nautical Twilight 5:32 AM CDT 8:56 PM CDT
Astronomical Twilight 4:58 AM CDT 9:31 PM CDT
Moon 12:34 AM CDT 10:56 AM CDT
Length of Visible Light 14h 18m
Length of Day
13h 23m
Tomorrow will be 2m 17s longer.
Waning Gibbous, 68% of the Moon is Illuminated
Today
Waning Gibbous
Apr 22
Last Quarter
Apr 29
New
May 6
First Quarter
May 14
Full

Today's Extremes

State Highs State Lows

Community

  • Columbine
    Columbine
  • Easter Sunrise
    Easter Sunrise
  • Easter Eve - The Promise - Lake Palestine, TX
    Easter Eve - The Promise - Lake Palestine, TX
  • Happy Easter
    Happy Easter
  • EARLY FOGGY MORNING
    EARLY FOGGY MORNING

WunderPhotos

Upload Photos

1,703,291 photos uploaded!

WunderBlogs® & News

Nearby

Snow Depth

Station Depth Elevation
No new snow has been reported.

Coastal Water Temperatures

Place Temperature
No Stations Reporting

Earthquake Activity

City Distance Mag. Time & Date
No recent earthquake activity has been reported nearby.
Minimum magnitude displayed is 2.5.

Nearby Weather Stations

Station Location Temp. Heat Index Dew Point Humidity Wind Precip. Elev Updated Type
Gordon's Orchard, Collins, MO 79.0 °F 80 °F 57 °F 47% South  at  5.3 mph - / hr 925 ft 12:33 PM CDT Normal
Freemont St, Stockton, MO 73.2 °F 75 °F 24 °F 16% ESE  at  5.4 mph 0.00 in / hr 948 ft 12:39 PM CDT Rapid Fire
RAWS CLINTON MO, Clinton, MO 76 °F 78 °F 52 °F 44% SW  at  6 mph 0.00 in / hr 759 ft 11:13 AM CDT MADIS

Show More Stations Show Fewer Stations

What do you think?

We're not finished. Please let us know what you like, what you don't like, and what you are still missing.